sensor_id;sensor_type;location;lat;lon;timestamp;P1;durP1;ratioP1;P2;durP2;ratioP2
16640;SDS011;8434;47.990;7.880;2023-06-22T00:01:42;14.33;;;6.77;;
16640;SDS011;8434;47.990;7.880;2023-06-22T00:04:27;12.33;;;7.37;;
16640;SDS011;8434;47.990;7.880;2023-06-22T00:07:13;7.90;;;6.43;;
16640;SDS011;8434;47.990;7.880;2023-06-22T00:09:58;9.67;;;7.13;;
16640;SDS011;8434;47.990;7.880;2023-06-22T00:12:44;11.23;;;7.17;;
16640;SDS011;8434;47.990;7.880;2023-06-22T00:15:30;11.20;;;6.37;;
16640;SDS011;8434;47.990;7.880;2023-06-22T00:18:16;11.90;;;6.47;;
16640;SDS011;8434;47.990;7.880;2023-06-22T00:21:01;10.43;;;6.70;;
16640;SDS011;8434;47.990;7.880;2023-06-22T00:23:47;12.07;;;6.40;;
16640;SDS011;8434;47.990;7.880;2023-06-22T00:26:32;13.37;;;7.03;;
16640;SDS011;8434;47.990;7.880;2023-06-22T00:29:18;11.57;;;6.87;;
16640;SDS011;8434;47.990;7.880;2023-06-22T00:32:05;12.33;;;7.03;;
16640;SDS011;8434;47.990;7.880;2023-06-22T00:34:51;10.67;;;6.73;;
16640;SDS011;8434;47.990;7.880;2023-06-22T00:37:36;12.10;;;7.20;;
16640;SDS011;8434;47.990;7.880;2023-06-22T00:40:22;9.70;;;6.50;;
16640;SDS011;8434;47.990;7.880;2023-06-22T00:43:08;11.40;;;6.63;;
16640;SDS011;8434;47.990;7.880;2023-06-22T00:45:54;9.20;;;6.77;;
16640;SDS011;8434;47.990;7.880;2023-06-22T00:48:41;13.27;;;7.07;;
16640;SDS011;8434;47.990;7.880;2023-06-22T00:51:28;13.43;;;6.83;;
16640;SDS011;8434;47.990;7.880;2023-06-22T00:54:13;14.53;;;7.00;;
16640;SDS011;8434;47.990;7.880;2023-06-22T00:56:58;11.63;;;7.50;;
16640;SDS011;8434;47.990;7.880;2023-06-22T00:59:45;9.97;;;6.97;;
16640;SDS011;8434;47.990;7.880;2023-06-22T01:02:32;11.50;;;7.63;;
16640;SDS011;8434;47.990;7.880;2023-06-22T01:05:19;9.63;;;6.83;;
16640;SDS011;8434;47.990;7.880;2023-06-22T01:08:06;12.33;;;6.63;;
16640;SDS011;8434;47.990;7.880;2023-06-22T01:10:58;16.33;;;7.50;;
16640;SDS011;8434;47.990;7.880;2023-06-22T01:13:48;11.93;;;7.67;;
16640;SDS011;8434;47.990;7.880;2023-06-22T01:16:37;12.73;;;6.87;;
16640;SDS011;8434;47.990;7.880;2023-06-22T01:19:32;16.20;;;7.63;;
16640;SDS011;8434;47.990;7.880;2023-06-22T01:22:22;10.43;;;7.10;;
16640;SDS011;8434;47.990;7.880;2023-06-22T01:25:09;11.57;;;7.33;;
16640;SDS011;8434;47.990;7.880;2023-06-22T01:27:56;12.57;;;7.27;;
16640;SDS011;8434;47.990;7.880;2023-06-22T01:30:46;10.17;;;6.60;;
16640;SDS011;8434;47.990;7.880;2023-06-22T01:33:34;13.23;;;7.73;;
16640;SDS011;8434;47.990;7.880;2023-06-22T01:36:21;10.93;;;7.27;;
16640;SDS011;8434;47.990;7.880;2023-06-22T01:39:06;13.33;;;8.17;;
16640;SDS011;8434;47.990;7.880;2023-06-22T01:41:52;12.97;;;7.37;;
16640;SDS011;8434;47.990;7.880;2023-06-22T01:44:39;12.03;;;7.67;;
16640;SDS011;8434;47.990;7.880;2023-06-22T01:47:28;13.90;;;8.30;;
16640;SDS011;8434;47.990;7.880;2023-06-22T01:50:13;15.33;;;8.00;;
16640;SDS011;8434;47.990;7.880;2023-06-22T01:52:59;15.03;;;7.53;;
16640;SDS011;8434;47.990;7.880;2023-06-22T01:55:44;17.90;;;8.90;;
16640;SDS011;8434;47.990;7.880;2023-06-22T01:58:30;13.73;;;8.13;;
16640;SDS011;8434;47.990;7.880;2023-06-22T02:01:19;11.77;;;7.33;;
16640;SDS011;8434;47.990;7.880;2023-06-22T02:04:08;11.83;;;7.30;;
16640;SDS011;8434;47.990;7.880;2023-06-22T02:06:58;15.00;;;7.63;;
16640;SDS011;8434;47.990;7.880;2023-06-22T02:09:44;15.30;;;8.03;;
16640;SDS011;8434;47.990;7.880;2023-06-22T02:12:30;13.73;;;6.80;;
16640;SDS011;8434;47.990;7.880;2023-06-22T02:15:17;10.77;;;7.27;;
16640;SDS011;8434;47.990;7.880;2023-06-22T02:18:04;13.47;;;7.47;;
16640;SDS011;8434;47.990;7.880;2023-06-22T02:20:52;12.30;;;7.53;;
16640;SDS011;8434;47.990;7.880;2023-06-22T02:23:38;11.23;;;7.23;;
16640;SDS011;8434;47.990;7.880;2023-06-22T02:26:23;15.07;;;7.80;;
16640;SDS011;8434;47.990;7.880;2023-06-22T02:29:11;9.50;;;6.33;;
16640;SDS011;8434;47.990;7.880;2023-06-22T02:31:57;13.63;;;6.30;;
16640;SDS011;8434;47.990;7.880;2023-06-22T02:34:42;11.73;;;7.13;;
16640;SDS011;8434;47.990;7.880;2023-06-22T02:37:36;12.40;;;6.80;;
16640;SDS011;8434;47.990;7.880;2023-06-22T02:40:22;11.43;;;8.37;;
16640;SDS011;8434;47.990;7.880;2023-06-22T02:43:08;13.57;;;7.30;;
16640;SDS011;8434;47.990;7.880;2023-06-22T02:45:53;12.10;;;7.07;;
16640;SDS011;8434;47.990;7.880;2023-06-22T02:48:39;11.40;;;7.50;;
16640;SDS011;8434;47.990;7.880;2023-06-22T02:51:25;11.83;;;8.47;;
16640;SDS011;8434;47.990;7.880;2023-06-22T02:54:11;11.60;;;7.67;;
16640;SDS011;8434;47.990;7.880;2023-06-22T02:56:57;14.07;;;7.77;;
16640;SDS011;8434;47.990;7.880;2023-06-22T02:59:47;14.47;;;7.33;;
16640;SDS011;8434;47.990;7.880;2023-06-22T03:02:33;11.67;;;8.23;;
16640;SDS011;8434;47.990;7.880;2023-06-22T03:05:18;10.20;;;6.83;;
16640;SDS011;8434;47.990;7.880;2023-06-22T03:08:04;14.60;;;7.90;;
16640;SDS011;8434;47.990;7.880;2023-06-22T03:10:53;11.23;;;7.73;;
16640;SDS011;8434;47.990;7.880;2023-06-22T03:13:39;12.77;;;6.83;;
16640;SDS011;8434;47.990;7.880;2023-06-22T03:16:25;15.60;;;7.27;;
16640;SDS011;8434;47.990;7.880;2023-06-22T03:19:10;12.27;;;7.87;;
16640;SDS011;8434;47.990;7.880;2023-06-22T03:21:55;12.87;;;7.00;;
16640;SDS011;8434;47.990;7.880;2023-06-22T03:24:40;13.33;;;6.70;;
16640;SDS011;8434;47.990;7.880;2023-06-22T03:27:28;14.83;;;6.93;;
16640;SDS011;8434;47.990;7.880;2023-06-22T03:30:13;12.60;;;6.97;;
16640;SDS011;8434;47.990;7.880;2023-06-22T03:32:58;12.87;;;6.87;;
16640;SDS011;8434;47.990;7.880;2023-06-22T03:35:44;14.70;;;7.90;;
16640;SDS011;8434;47.990;7.880;2023-06-22T03:38:30;14.07;;;7.90;;
16640;SDS011;8434;47.990;7.880;2023-06-22T03:41:15;14.53;;;8.07;;
16640;SDS011;8434;47.990;7.880;2023-06-22T03:44:03;11.33;;;8.37;;
16640;SDS011;8434;47.990;7.880;2023-06-22T03:46:48;14.60;;;7.77;;
16640;SDS011;8434;47.990;7.880;2023-06-22T03:49:36;13.83;;;6.20;;
16640;SDS011;8434;47.990;7.880;2023-06-22T03:52:22;13.23;;;8.00;;
16640;SDS011;8434;47.990;7.880;2023-06-22T03:55:07;14.77;;;6.93;;
16640;SDS011;8434;47.990;7.880;2023-06-22T03:57:53;13.67;;;7.63;;
16640;SDS011;8434;47.990;7.880;2023-06-22T04:00:42;16.27;;;7.47;;
16640;SDS011;8434;47.990;7.880;2023-06-22T04:03:27;13.83;;;7.30;;
16640;SDS011;8434;47.990;7.880;2023-06-22T04:06:13;10.83;;;6.57;;
16640;SDS011;8434;47.990;7.880;2023-06-22T04:08:58;11.27;;;7.27;;
16640;SDS011;8434;47.990;7.880;2023-06-22T04:11:44;10.57;;;6.77;;
16640;SDS011;8434;47.990;7.880;2023-06-22T04:14:30;11.67;;;7.47;;
16640;SDS011;8434;47.990;7.880;2023-06-22T04:17:17;12.77;;;6.93;;
16640;SDS011;8434;47.990;7.880;2023-06-22T04:20:03;14.30;;;7.37;;
16640;SDS011;8434;47.990;7.880;2023-06-22T04:22:49;11.13;;;6.80;;
16640;SDS011;8434;47.990;7.880;2023-06-22T04:25:34;10.97;;;6.33;;
16640;SDS011;8434;47.990;7.880;2023-06-22T04:28:20;10.13;;;6.70;;
16640;SDS011;8434;47.990;7.880;2023-06-22T04:31:05;9.37;;;6.97;;
16640;SDS011;8434;47.990;7.880;2023-06-22T04:33:52;13.33;;;7.23;;
16640;SDS011;8434;47.990;7.880;2023-06-22T04:36:38;9.07;;;6.60;;
16640;SDS011;8434;47.990;7.880;2023-06-22T04:39:24;11.23;;;6.77;;
16640;SDS011;8434;47.990;7.880;2023-06-22T04:42:11;13.43;;;7.27;;
16640;SDS011;8434;47.990;7.880;2023-06-22T04:44:57;14.37;;;7.17;;
16640;SDS011;8434;47.990;7.880;2023-06-22T04:47:43;12.37;;;7.67;;
16640;SDS011;8434;47.990;7.880;2023-06-22T04:50:31;10.47;;;7.40;;
16640;SDS011;8434;47.990;7.880;2023-06-22T04:53:16;13.33;;;7.43;;
16640;SDS011;8434;47.990;7.880;2023-06-22T04:56:01;11.63;;;6.20;;
16640;SDS011;8434;47.990;7.880;2023-06-22T04:58:48;10.93;;;7.23;;
16640;SDS011;8434;47.990;7.880;2023-06-22T05:01:35;10.30;;;6.77;;
16640;SDS011;8434;47.990;7.880;2023-06-22T05:04:21;11.35;;;7.75;;
16640;SDS011;8434;47.990;7.880;2023-06-22T05:07:08;15.18;;;7.32;;
16640;SDS011;8434;47.990;7.880;2023-06-22T05:09:54;13.60;;;6.93;;
16640;SDS011;8434;47.990;7.880;2023-06-22T05:12:40;13.38;;;7.50;;
16640;SDS011;8434;47.990;7.880;2023-06-22T05:15:25;12.52;;;6.63;;
16640;SDS011;8434;47.990;7.880;2023-06-22T05:18:14;10.15;;;7.63;;
16640;SDS011;8434;47.990;7.880;2023-06-22T05:21:00;13.20;;;6.85;;
16640;SDS011;8434;47.990;7.880;2023-06-22T05:23:46;9.27;;;6.25;;
16640;SDS011;8434;47.990;7.880;2023-06-22T05:26:32;12.60;;;6.63;;
16640;SDS011;8434;47.990;7.880;2023-06-22T05:29:18;10.88;;;6.53;;
16640;SDS011;8434;47.990;7.880;2023-06-22T05:32:04;8.30;;;5.68;;
16640;SDS011;8434;47.990;7.880;2023-06-22T05:34:50;8.93;;;6.20;;
16640;SDS011;8434;47.990;7.880;2023-06-22T05:37:36;12.68;;;7.43;;
16640;SDS011;8434;47.990;7.880;2023-06-22T05:40:22;10.82;;;6.90;;
16640;SDS011;8434;47.990;7.880;2023-06-22T05:43:08;9.82;;;6.40;;
16640;SDS011;8434;47.990;7.880;2023-06-22T05:45:53;12.13;;;7.15;;
16640;SDS011;8434;47.990;7.880;2023-06-22T05:48:39;14.30;;;6.93;;
16640;SDS011;8434;47.990;7.880;2023-06-22T05:51:24;10.77;;;6.72;;
16640;SDS011;8434;47.990;7.880;2023-06-22T05:54:10;10.55;;;7.20;;
16640;SDS011;8434;47.990;7.880;2023-06-22T05:56:59;11.05;;;7.05;;
16640;SDS011;8434;47.990;7.880;2023-06-22T05:59:44;11.80;;;6.30;;
16640;SDS011;8434;47.990;7.880;2023-06-22T06:02:29;13.70;;;7.22;;
16640;SDS011;8434;47.990;7.880;2023-06-22T06:05:15;12.93;;;7.25;;
16640;SDS011;8434;47.990;7.880;2023-06-22T06:08:00;9.93;;;5.70;;
16640;SDS011;8434;47.990;7.880;2023-06-22T06:10:46;10.05;;;6.00;;
16640;SDS011;8434;47.990;7.880;2023-06-22T06:13:32;8.85;;;5.75;;
16640;SDS011;8434;47.990;7.880;2023-06-22T06:16:18;9.77;;;5.97;;
16640;SDS011;8434;47.990;7.880;2023-06-22T06:19:03;9.85;;;6.07;;
16640;SDS011;8434;47.990;7.880;2023-06-22T06:21:49;9.52;;;6.10;;
16640;SDS011;8434;47.990;7.880;2023-06-22T06:24:35;12.40;;;6.93;;
16640;SDS011;8434;47.990;7.880;2023-06-22T06:27:20;8.95;;;7.10;;
16640;SDS011;8434;47.990;7.880;2023-06-22T06:30:15;12.07;;;7.32;;
16640;SDS011;8434;47.990;7.880;2023-06-22T06:33:00;11.63;;;7.32;;
16640;SDS011;8434;47.990;7.880;2023-06-22T06:35:46;11.70;;;7.15;;
16640;SDS011;8434;47.990;7.880;2023-06-22T06:38:31;10.25;;;6.95;;
16640;SDS011;8434;47.990;7.880;2023-06-22T06:41:17;10.32;;;7.40;;
16640;SDS011;8434;47.990;7.880;2023-06-22T06:44:02;10.43;;;7.80;;
16640;SDS011;8434;47.990;7.880;2023-06-22T06:46:49;11.30;;;8.00;;
16640;SDS011;8434;47.990;7.880;2023-06-22T06:49:35;12.77;;;7.80;;
16640;SDS011;8434;47.990;7.880;2023-06-22T06:52:20;12.27;;;7.50;;
16640;SDS011;8434;47.990;7.880;2023-06-22T06:55:06;11.55;;;8.18;;
16640;SDS011;8434;47.990;7.880;2023-06-22T06:57:54;11.57;;;8.10;;
16640;SDS011;8434;47.990;7.880;2023-06-22T07:00:39;9.52;;;7.88;;
16640;SDS011;8434;47.990;7.880;2023-06-22T07:03:26;9.25;;;7.22;;
16640;SDS011;8434;47.990;7.880;2023-06-22T07:06:13;10.68;;;8.10;;
16640;SDS011;8434;47.990;7.880;2023-06-22T07:08:58;11.85;;;8.32;;
16640;SDS011;8434;47.990;7.880;2023-06-22T07:11:43;12.15;;;8.95;;
16640;SDS011;8434;47.990;7.880;2023-06-22T07:14:29;10.40;;;8.00;;
16640;SDS011;8434;47.990;7.880;2023-06-22T07:17:15;10.98;;;7.80;;
16640;SDS011;8434;47.990;7.880;2023-06-22T07:20:02;11.52;;;6.90;;
16640;SDS011;8434;47.990;7.880;2023-06-22T07:22:52;9.52;;;6.40;;
16640;SDS011;8434;47.990;7.880;2023-06-22T07:25:38;10.13;;;6.35;;
16640;SDS011;8434;47.990;7.880;2023-06-22T07:28:23;11.02;;;6.13;;
16640;SDS011;8434;47.990;7.880;2023-06-22T07:31:08;9.48;;;6.88;;
16640;SDS011;8434;47.990;7.880;2023-06-22T07:33:54;12.00;;;7.80;;
16640;SDS011;8434;47.990;7.880;2023-06-22T07:36:41;10.30;;;6.97;;
16640;SDS011;8434;47.990;7.880;2023-06-22T07:39:26;8.20;;;6.65;;
16640;SDS011;8434;47.990;7.880;2023-06-22T07:42:12;9.35;;;6.10;;
16640;SDS011;8434;47.990;7.880;2023-06-22T07:44:57;9.90;;;6.55;;
16640;SDS011;8434;47.990;7.880;2023-06-22T07:47:43;16.15;;;7.60;;
16640;SDS011;8434;47.990;7.880;2023-06-22T07:50:28;12.15;;;7.47;;
16640;SDS011;8434;47.990;7.880;2023-06-22T07:53:15;13.30;;;8.27;;
16640;SDS011;8434;47.990;7.880;2023-06-22T07:56:00;10.70;;;7.32;;
16640;SDS011;8434;47.990;7.880;2023-06-22T07:58:50;9.52;;;7.03;;
16640;SDS011;8434;47.990;7.880;2023-06-22T08:01:37;13.43;;;7.03;;
16640;SDS011;8434;47.990;7.880;2023-06-22T08:04:22;7.53;;;5.80;;
16640;SDS011;8434;47.990;7.880;2023-06-22T08:07:08;9.45;;;5.80;;
16640;SDS011;8434;47.990;7.880;2023-06-22T08:09:55;10.18;;;6.53;;
16640;SDS011;8434;47.990;7.880;2023-06-22T08:12:40;7.85;;;6.22;;
16640;SDS011;8434;47.990;7.880;2023-06-22T08:15:26;8.63;;;5.10;;
16640;SDS011;8434;47.990;7.880;2023-06-22T08:18:12;9.63;;;6.97;;
16640;SDS011;8434;47.990;7.880;2023-06-22T08:20:57;8.70;;;5.90;;
16640;SDS011;8434;47.990;7.880;2023-06-22T08:23:43;8.65;;;6.82;;
16640;SDS011;8434;47.990;7.880;2023-06-22T08:26:30;10.95;;;6.13;;
16640;SDS011;8434;47.990;7.880;2023-06-22T08:29:17;10.80;;;6.15;;
16640;SDS011;8434;47.990;7.880;2023-06-22T08:32:02;10.20;;;6.22;;
16640;SDS011;8434;47.990;7.880;2023-06-22T08:34:48;9.60;;;6.00;;
16640;SDS011;8434;47.990;7.880;2023-06-22T08:37:33;10.52;;;5.82;;
16640;SDS011;8434;47.990;7.880;2023-06-22T08:40:19;9.63;;;6.15;;
16640;SDS011;8434;47.990;7.880;2023-06-22T08:43:06;11.13;;;6.47;;
16640;SDS011;8434;47.990;7.880;2023-06-22T08:45:51;10.40;;;5.75;;
16640;SDS011;8434;47.990;7.880;2023-06-22T08:48:37;14.32;;;6.75;;
16640;SDS011;8434;47.990;7.880;2023-06-22T08:51:22;11.18;;;5.95;;
16640;SDS011;8434;47.990;7.880;2023-06-22T08:54:08;7.78;;;5.22;;
16640;SDS011;8434;47.990;7.880;2023-06-22T08:56:54;8.23;;;5.75;;
16640;SDS011;8434;47.990;7.880;2023-06-22T08:59:41;10.52;;;5.85;;
16640;SDS011;8434;47.990;7.880;2023-06-22T09:02:26;8.40;;;5.65;;
16640;SDS011;8434;47.990;7.880;2023-06-22T09:05:15;8.55;;;5.50;;
16640;SDS011;8434;47.990;7.880;2023-06-22T09:08:01;10.30;;;5.63;;
16640;SDS011;8434;47.990;7.880;2023-06-22T09:10:46;13.38;;;5.72;;
16640;SDS011;8434;47.990;7.880;2023-06-22T09:13:32;11.48;;;6.22;;
16640;SDS011;8434;47.990;7.880;2023-06-22T09:16:20;7.68;;;5.10;;
16640;SDS011;8434;47.990;7.880;2023-06-22T09:19:05;12.82;;;5.65;;
16640;SDS011;8434;47.990;7.880;2023-06-22T09:21:51;9.00;;;5.70;;
16640;SDS011;8434;47.990;7.880;2023-06-22T09:24:36;13.13;;;5.40;;
16640;SDS011;8434;47.990;7.880;2023-06-22T09:27:22;7.03;;;5.40;;
16640;SDS011;8434;47.990;7.880;2023-06-22T09:30:07;12.75;;;6.10;;
16640;SDS011;8434;47.990;7.880;2023-06-22T09:32:54;11.55;;;5.97;;
16640;SDS011;8434;47.990;7.880;2023-06-22T09:35:40;9.75;;;5.80;;
16640;SDS011;8434;47.990;7.880;2023-06-22T09:38:25;10.65;;;5.60;;
16640;SDS011;8434;47.990;7.880;2023-06-22T09:41:11;11.02;;;5.18;;
16640;SDS011;8434;47.990;7.880;2023-06-22T09:43:56;11.63;;;5.50;;
16640;SDS011;8434;47.990;7.880;2023-06-22T09:46:42;12.32;;;5.40;;
16640;SDS011;8434;47.990;7.880;2023-06-22T09:49:29;9.63;;;5.18;;
16640;SDS011;8434;47.990;7.880;2023-06-22T09:52:14;11.82;;;5.75;;
16640;SDS011;8434;47.990;7.880;2023-06-22T09:55:00;9.73;;;5.55;;
16640;SDS011;8434;47.990;7.880;2023-06-22T09:57:47;7.05;;;5.53;;
16640;SDS011;8434;47.990;7.880;2023-06-22T10:00:32;10.20;;;4.90;;
16640;SDS011;8434;47.990;7.880;2023-06-22T10:03:18;14.57;;;6.40;;
16640;SDS011;8434;47.990;7.880;2023-06-22T10:06:05;10.50;;;5.45;;
16640;SDS011;8434;47.990;7.880;2023-06-22T10:08:50;12.93;;;6.07;;
16640;SDS011;8434;47.990;7.880;2023-06-22T10:11:36;12.07;;;5.53;;
16640;SDS011;8434;47.990;7.880;2023-06-22T10:14:21;9.52;;;5.57;;
16640;SDS011;8434;47.990;7.880;2023-06-22T10:17:08;10.27;;;5.35;;
16640;SDS011;8434;47.990;7.880;2023-06-22T10:19:54;10.23;;;5.72;;
16640;SDS011;8434;47.990;7.880;2023-06-22T10:22:41;9.13;;;5.90;;
16640;SDS011;8434;47.990;7.880;2023-06-22T10:25:27;8.82;;;5.45;;
16640;SDS011;8434;47.990;7.880;2023-06-22T10:28:12;9.10;;;5.90;;
16640;SDS011;8434;47.990;7.880;2023-06-22T10:30:58;11.93;;;6.70;;
16640;SDS011;8434;47.990;7.880;2023-06-22T10:33:43;10.02;;;5.97;;
16640;SDS011;8434;47.990;7.880;2023-06-22T10:36:29;10.48;;;6.50;;
16640;SDS011;8434;47.990;7.880;2023-06-22T10:39:16;9.05;;;6.82;;
16640;SDS011;8434;47.990;7.880;2023-06-22T10:42:01;9.02;;;6.93;;
16640;SDS011;8434;47.990;7.880;2023-06-22T10:44:47;14.20;;;7.57;;
16640;SDS011;8434;47.990;7.880;2023-06-22T10:47:32;10.23;;;6.60;;
16640;SDS011;8434;47.990;7.880;2023-06-22T10:50:17;9.68;;;6.50;;
16640;SDS011;8434;47.990;7.880;2023-06-22T10:53:04;12.43;;;7.55;;
16640;SDS011;8434;47.990;7.880;2023-06-22T10:55:51;9.70;;;7.50;;
16640;SDS011;8434;47.990;7.880;2023-06-22T10:58:37;11.02;;;6.38;;
16640;SDS011;8434;47.990;7.880;2023-06-22T11:01:22;11.05;;;6.40;;
16640;SDS011;8434;47.990;7.880;2023-06-22T11:04:08;8.50;;;6.00;;
16640;SDS011;8434;47.990;7.880;2023-06-22T11:06:53;12.57;;;6.95;;
16640;SDS011;8434;47.990;7.880;2023-06-22T11:09:40;8.60;;;6.68;;
16640;SDS011;8434;47.990;7.880;2023-06-22T11:12:27;7.28;;;6.32;;
16640;SDS011;8434;47.990;7.880;2023-06-22T11:15:12;10.10;;;6.40;;
16640;SDS011;8434;47.990;7.880;2023-06-22T11:17:57;12.98;;;6.80;;
16640;SDS011;8434;47.990;7.880;2023-06-22T11:20:42;9.88;;;7.10;;
16640;SDS011;8434;47.990;7.880;2023-06-22T11:23:28;9.95;;;6.50;;
16640;SDS011;8434;47.990;7.880;2023-06-22T11:26:14;10.52;;;6.78;;
16640;SDS011;8434;47.990;7.880;2023-06-22T11:29:01;9.50;;;7.05;;
16640;SDS011;8434;47.990;7.880;2023-06-22T11:31:49;9.85;;;7.18;;
16640;SDS011;8434;47.990;7.880;2023-06-22T11:34:34;9.73;;;6.60;;
16640;SDS011;8434;47.990;7.880;2023-06-22T11:37:20;10.35;;;6.90;;
16640;SDS011;8434;47.990;7.880;2023-06-22T11:40:05;17.08;;;8.43;;
16640;SDS011;8434;47.990;7.880;2023-06-22T11:42:52;10.27;;;7.25;;
16640;SDS011;8434;47.990;7.880;2023-06-22T11:45:39;10.07;;;6.80;;
16640;SDS011;8434;47.990;7.880;2023-06-22T11:48:24;9.82;;;7.10;;
16640;SDS011;8434;47.990;7.880;2023-06-22T11:51:10;12.77;;;7.60;;
16640;SDS011;8434;47.990;7.880;2023-06-22T11:53:55;12.20;;;7.40;;
16640;SDS011;8434;47.990;7.880;2023-06-22T11:56:41;9.07;;;6.22;;
16640;SDS011;8434;47.990;7.880;2023-06-22T11:59:26;9.18;;;6.50;;
16640;SDS011;8434;47.990;7.880;2023-06-22T12:02:13;8.30;;;5.82;;
16640;SDS011;8434;47.990;7.880;2023-06-22T12:04:59;7.97;;;5.15;;
16640;SDS011;8434;47.990;7.880;2023-06-22T12:07:45;12.02;;;6.65;;
16640;SDS011;8434;47.990;7.880;2023-06-22T12:10:30;9.13;;;5.05;;
16640;SDS011;8434;47.990;7.880;2023-06-22T12:13:15;10.73;;;5.78;;
16640;SDS011;8434;47.990;7.880;2023-06-22T12:16:01;9.25;;;5.30;;
16640;SDS011;8434;47.990;7.880;2023-06-22T12:18:48;12.02;;;5.55;;
16640;SDS011;8434;47.990;7.880;2023-06-22T12:21:34;9.07;;;6.15;;
16640;SDS011;8434;47.990;7.880;2023-06-22T12:24:19;9.80;;;6.43;;
16640;SDS011;8434;47.990;7.880;2023-06-22T12:27:05;17.17;;;7.47;;
16640;SDS011;8434;47.990;7.880;2023-06-22T12:29:50;12.02;;;7.10;;
16640;SDS011;8434;47.990;7.880;2023-06-22T12:32:36;13.88;;;7.18;;
16640;SDS011;8434;47.990;7.880;2023-06-22T12:35:22;14.05;;;9.38;;
16640;SDS011;8434;47.990;7.880;2023-06-22T12:38:08;12.02;;;8.43;;
16640;SDS011;8434;47.990;7.880;2023-06-22T12:40:53;17.50;;;8.27;;
16640;SDS011;8434;47.990;7.880;2023-06-22T12:43:40;13.85;;;8.15;;
16640;SDS011;8434;47.990;7.880;2023-06-22T12:46:25;12.20;;;6.72;;
16640;SDS011;8434;47.990;7.880;2023-06-22T12:49:11;12.93;;;6.90;;
16640;SDS011;8434;47.990;7.880;2023-06-22T12:51:58;9.38;;;5.75;;
16640;SDS011;8434;47.990;7.880;2023-06-22T12:54:43;10.88;;;6.32;;
16640;SDS011;8434;47.990;7.880;2023-06-22T12:57:29;11.80;;;5.78;;
16640;SDS011;8434;47.990;7.880;2023-06-22T13:00:15;12.55;;;6.43;;
16640;SDS011;8434;47.990;7.880;2023-06-22T13:03:00;14.50;;;6.20;;
16640;SDS011;8434;47.990;7.880;2023-06-22T13:05:46;13.88;;;5.78;;
16640;SDS011;8434;47.990;7.880;2023-06-22T13:08:33;17.58;;;6.45;;
16640;SDS011;8434;47.990;7.880;2023-06-22T13:11:18;9.30;;;5.72;;
16640;SDS011;8434;47.990;7.880;2023-06-22T13:14:04;10.55;;;5.82;;
16640;SDS011;8434;47.990;7.880;2023-06-22T13:16:49;9.32;;;5.82;;
16640;SDS011;8434;47.990;7.880;2023-06-22T13:19:35;9.80;;;5.95;;
16640;SDS011;8434;47.990;7.880;2023-06-22T13:22:28;12.13;;;6.53;;
16640;SDS011;8434;47.990;7.880;2023-06-22T13:25:15;10.15;;;5.60;;
16640;SDS011;8434;47.990;7.880;2023-06-22T13:28:03;13.00;;;5.43;;
16640;SDS011;8434;47.990;7.880;2023-06-22T13:30:48;13.23;;;5.57;;
16640;SDS011;8434;47.990;7.880;2023-06-22T13:33:34;17.23;;;6.40;;
16640;SDS011;8434;47.990;7.880;2023-06-22T13:36:20;11.43;;;6.05;;
16640;SDS011;8434;47.990;7.880;2023-06-22T13:39:06;9.48;;;5.78;;
16640;SDS011;8434;47.990;7.880;2023-06-22T13:41:53;11.35;;;6.03;;
16640;SDS011;8434;47.990;7.880;2023-06-22T13:44:39;10.85;;;5.30;;
16640;SDS011;8434;47.990;7.880;2023-06-22T13:47:24;12.57;;;5.28;;
16640;SDS011;8434;47.990;7.880;2023-06-22T13:50:09;12.70;;;6.22;;
16640;SDS011;8434;47.990;7.880;2023-06-22T13:52:56;8.93;;;5.30;;
16640;SDS011;8434;47.990;7.880;2023-06-22T13:55:42;10.95;;;4.93;;
16640;SDS011;8434;47.990;7.880;2023-06-22T13:58:29;13.07;;;5.15;;
16640;SDS011;8434;47.990;7.880;2023-06-22T14:01:14;13.73;;;5.30;;
16640;SDS011;8434;47.990;7.880;2023-06-22T14:03:59;13.70;;;5.60;;
16640;SDS011;8434;47.990;7.880;2023-06-22T14:06:46;9.38;;;5.10;;
16640;SDS011;8434;47.990;7.880;2023-06-22T14:09:31;10.27;;;5.95;;
16640;SDS011;8434;47.990;7.880;2023-06-22T14:12:17;15.25;;;5.93;;
16640;SDS011;8434;47.990;7.880;2023-06-22T14:15:05;14.27;;;6.40;;
16640;SDS011;8434;47.990;7.880;2023-06-22T14:17:50;9.07;;;5.85;;
16640;SDS011;8434;47.990;7.880;2023-06-22T14:20:36;14.38;;;6.03;;
16640;SDS011;8434;47.990;7.880;2023-06-22T14:23:24;16.17;;;6.70;;
16640;SDS011;8434;47.990;7.880;2023-06-22T14:26:10;14.65;;;6.30;;
16640;SDS011;8434;47.990;7.880;2023-06-22T14:28:55;9.93;;;5.90;;
16640;SDS011;8434;47.990;7.880;2023-06-22T14:31:44;10.13;;;5.80;;
16640;SDS011;8434;47.990;7.880;2023-06-22T14:34:29;13.00;;;6.07;;
16640;SDS011;8434;47.990;7.880;2023-06-22T14:37:15;11.23;;;5.43;;
16640;SDS011;8434;47.990;7.880;2023-06-22T14:40:00;7.60;;;4.75;;
16640;SDS011;8434;47.990;7.880;2023-06-22T14:42:46;10.90;;;5.55;;
16640;SDS011;8434;47.990;7.880;2023-06-22T14:45:31;9.50;;;5.32;;
16640;SDS011;8434;47.990;7.880;2023-06-22T14:48:18;14.48;;;5.80;;
16640;SDS011;8434;47.990;7.880;2023-06-22T14:51:03;12.15;;;5.68;;
16640;SDS011;8434;47.990;7.880;2023-06-22T14:53:49;14.98;;;5.43;;
16640;SDS011;8434;47.990;7.880;2023-06-22T14:56:34;12.80;;;4.90;;
16640;SDS011;8434;47.990;7.880;2023-06-22T14:59:20;14.25;;;5.20;;
16640;SDS011;8434;47.990;7.880;2023-06-22T15:02:05;10.95;;;5.10;;
16640;SDS011;8434;47.990;7.880;2023-06-22T15:04:52;10.80;;;5.20;;
16640;SDS011;8434;47.990;7.880;2023-06-22T15:07:38;9.65;;;5.10;;
16640;SDS011;8434;47.990;7.880;2023-06-22T15:10:23;8.55;;;5.05;;
16640;SDS011;8434;47.990;7.880;2023-06-22T15:13:09;11.90;;;5.22;;
16640;SDS011;8434;47.990;7.880;2023-06-22T15:15:54;13.07;;;5.50;;
16640;SDS011;8434;47.990;7.880;2023-06-22T15:18:40;12.15;;;5.57;;
16640;SDS011;8434;47.990;7.880;2023-06-22T15:21:27;9.77;;;4.65;;
16640;SDS011;8434;47.990;7.880;2023-06-22T15:24:12;13.25;;;5.07;;
16640;SDS011;8434;47.990;7.880;2023-06-22T15:26:57;10.07;;;5.00;;
16640;SDS011;8434;47.990;7.880;2023-06-22T15:29:43;10.93;;;5.20;;
16640;SDS011;8434;47.990;7.880;2023-06-22T15:32:28;8.82;;;4.13;;
16640;SDS011;8434;47.990;7.880;2023-06-22T15:35:13;8.18;;;4.40;;
16640;SDS011;8434;47.990;7.880;2023-06-22T15:38:02;9.40;;;4.95;;
16640;SDS011;8434;47.990;7.880;2023-06-22T15:40:48;8.48;;;3.97;;
16640;SDS011;8434;47.990;7.880;2023-06-22T15:43:33;9.50;;;4.78;;
16640;SDS011;8434;47.990;7.880;2023-06-22T15:46:18;9.60;;;4.10;;
16640;SDS011;8434;47.990;7.880;2023-06-22T15:49:05;7.55;;;3.90;;
16640;SDS011;8434;47.990;7.880;2023-06-22T15:51:51;9.73;;;4.20;;
16640;SDS011;8434;47.990;7.880;2023-06-22T15:54:38;7.90;;;4.10;;
16640;SDS011;8434;47.990;7.880;2023-06-22T15:57:23;7.07;;;4.13;;
16640;SDS011;8434;47.990;7.880;2023-06-22T16:00:10;10.40;;;3.92;;
16640;SDS011;8434;47.990;7.880;2023-06-22T16:02:57;9.07;;;3.92;;
16640;SDS011;8434;47.990;7.880;2023-06-22T16:05:43;9.35;;;3.80;;
16640;SDS011;8434;47.990;7.880;2023-06-22T16:08:29;8.73;;;3.88;;
16640;SDS011;8434;47.990;7.880;2023-06-22T16:11:16;6.45;;;3.38;;
16640;SDS011;8434;47.990;7.880;2023-06-22T16:14:01;8.82;;;3.63;;
16640;SDS011;8434;47.990;7.880;2023-06-22T16:16:47;6.88;;;3.78;;
16640;SDS011;8434;47.990;7.880;2023-06-22T16:19:32;6.60;;;3.50;;
16640;SDS011;8434;47.990;7.880;2023-06-22T16:22:18;7.13;;;3.47;;
16640;SDS011;8434;47.990;7.880;2023-06-22T16:25:04;9.10;;;3.72;;
16640;SDS011;8434;47.990;7.880;2023-06-22T16:27:52;8.60;;;3.80;;
16640;SDS011;8434;47.990;7.880;2023-06-22T16:30:37;7.20;;;3.47;;
16640;SDS011;8434;47.990;7.880;2023-06-22T16:33:24;6.78;;;3.42;;
16640;SDS011;8434;47.990;7.880;2023-06-22T16:36:10;7.90;;;3.67;;
16640;SDS011;8434;47.990;7.880;2023-06-22T16:38:55;9.50;;;3.40;;
16640;SDS011;8434;47.990;7.880;2023-06-22T16:41:41;11.10;;;3.85;;
16640;SDS011;8434;47.990;7.880;2023-06-22T16:44:28;11.25;;;3.65;;
16640;SDS011;8434;47.990;7.880;2023-06-22T16:47:13;8.27;;;3.83;;